sensor_id;sensor_type;location;lat;lon;timestamp;temperature;humidity
19781;DHT22;10050;55.492;13.506;2023-12-07T00:01:26;0.90;99.90
19781;DHT22;10050;55.492;13.506;2023-12-07T00:03:52;0.90;99.90
19781;DHT22;10050;55.492;13.506;2023-12-07T00:06:17;0.90;99.90
19781;DHT22;10050;55.492;13.506;2023-12-07T00:08:43;0.90;99.90
19781;DHT22;10050;55.492;13.506;2023-12-07T00:11:09;0.90;99.90
19781;DHT22;10050;55.492;13.506;2023-12-07T00:13:36;0.90;99.90
19781;DHT22;10050;55.492;13.506;2023-12-07T00:16:02;0.90;99.90
19781;DHT22;10050;55.492;13.506;2023-12-07T00:18:28;0.90;99.90
19781;DHT22;10050;55.492;13.506;2023-12-07T00:20:54;0.90;99.90
19781;DHT22;10050;55.492;13.506;2023-12-07T00:23:19;0.90;99.90
19781;DHT22;10050;55.492;13.506;2023-12-07T00:25:45;0.90;99.90
19781;DHT22;10050;55.492;13.506;2023-12-07T00:28:11;0.90;99.90
19781;DHT22;10050;55.492;13.506;2023-12-07T00:30:37;0.90;99.90
19781;DHT22;10050;55.492;13.506;2023-12-07T00:33:02;0.90;99.90
19781;DHT22;10050;55.492;13.506;2023-12-07T00:35:28;0.90;99.90
19781;DHT22;10050;55.492;13.506;2023-12-07T00:37:55;0.90;99.90
19781;DHT22;10050;55.492;13.506;2023-12-07T00:40:21;0.90;99.90
19781;DHT22;10050;55.492;13.506;2023-12-07T00:42:47;1.00;99.90
19781;DHT22;10050;55.492;13.506;2023-12-07T00:45:16;1.00;99.90
19781;DHT22;10050;55.492;13.506;2023-12-07T00:47:42;1.00;99.90
19781;DHT22;10050;55.492;13.506;2023-12-07T00:50:08;0.90;99.90
19781;DHT22;10050;55.492;13.506;2023-12-07T00:52:36;0.90;99.90
19781;DHT22;10050;55.492;13.506;2023-12-07T00:55:02;0.90;99.90
19781;DHT22;10050;55.492;13.506;2023-12-07T00:57:28;1.00;99.90
19781;DHT22;10050;55.492;13.506;2023-12-07T00:59:54;1.00;99.90
19781;DHT22;10050;55.492;13.506;2023-12-07T01:02:19;1.00;99.90
19781;DHT22;10050;55.492;13.506;2023-12-07T01:04:45;1.00;99.90
19781;DHT22;10050;55.492;13.506;2023-12-07T01:07:10;1.00;99.90
19781;DHT22;10050;55.492;13.506;2023-12-07T01:09:37;1.00;99.90
19781;DHT22;10050;55.492;13.506;2023-12-07T01:12:03;1.00;99.90
19781;DHT22;10050;55.492;13.506;2023-12-07T01:14:28;1.00;99.90
19781;DHT22;10050;55.492;13.506;2023-12-07T01:16:54;1.00;99.90
19781;DHT22;10050;55.492;13.506;2023-12-07T01:19:20;1.00;99.90
19781;DHT22;10050;55.492;13.506;2023-12-07T01:21:46;0.90;99.90
19781;DHT22;10050;55.492;13.506;2023-12-07T01:24:12;0.90;99.90
19781;DHT22;10050;55.492;13.506;2023-12-07T01:26:38;0.90;99.90
19781;DHT22;10050;55.492;13.506;2023-12-07T01:29:04;0.90;99.90
19781;DHT22;10050;55.492;13.506;2023-12-07T01:31:30;1.00;99.90
19781;DHT22;10050;55.492;13.506;2023-12-07T01:33:58;0.90;99.90
19781;DHT22;10050;55.492;13.506;2023-12-07T01:36:24;0.90;99.90
19781;DHT22;10050;55.492;13.506;2023-12-07T01:38:50;1.00;99.90
19781;DHT22;10050;55.492;13.506;2023-12-07T01:41:22;0.90;99.90
19781;DHT22;10050;55.492;13.506;2023-12-07T01:43:48;0.90;99.90
19781;DHT22;10050;55.492;13.506;2023-12-07T01:46:15;0.90;99.90
19781;DHT22;10050;55.492;13.506;2023-12-07T01:48:41;0.90;99.90
19781;DHT22;10050;55.492;13.506;2023-12-07T01:51:08;1.00;99.90
19781;DHT22;10050;55.492;13.506;2023-12-07T01:53:34;1.00;99.90
19781;DHT22;10050;55.492;13.506;2023-12-07T01:56:00;0.90;99.90
19781;DHT22;10050;55.492;13.506;2023-12-07T01:58:28;0.90;99.90
19781;DHT22;10050;55.492;13.506;2023-12-07T02:00:53;0.90;99.90
19781;DHT22;10050;55.492;13.506;2023-12-07T02:03:20;0.90;99.90
19781;DHT22;10050;55.492;13.506;2023-12-07T02:05:48;0.90;99.90
19781;DHT22;10050;55.492;13.506;2023-12-07T02:08:14;0.90;99.90
19781;DHT22;10050;55.492;13.506;2023-12-07T02:10:41;1.00;99.90
19781;DHT22;10050;55.492;13.506;2023-12-07T02:13:07;1.00;99.90
19781;DHT22;10050;55.492;13.506;2023-12-07T02:15:34;1.00;99.90
19781;DHT22;10050;55.492;13.506;2023-12-07T02:18:16;0.90;99.90
19781;DHT22;10050;55.492;13.506;2023-12-07T02:21:16;1.00;99.90
19781;DHT22;10050;55.492;13.506;2023-12-07T02:23:44;1.00;99.90
19781;DHT22;10050;55.492;13.506;2023-12-07T02:26:34;1.00;99.90
19781;DHT22;10050;55.492;13.506;2023-12-07T02:29:18;1.00;99.90
19781;DHT22;10050;55.492;13.506;2023-12-07T02:31:44;1.00;99.90
19781;DHT22;10050;55.492;13.506;2023-12-07T02:34:10;1.00;99.90
19781;DHT22;10050;55.492;13.506;2023-12-07T02:36:38;1.00;99.90
19781;DHT22;10050;55.492;13.506;2023-12-07T02:39:05;1.00;99.90
19781;DHT22;10050;55.492;13.506;2023-12-07T02:41:33;1.00;99.90
19781;DHT22;10050;55.492;13.506;2023-12-07T02:43:59;1.00;99.90
19781;DHT22;10050;55.492;13.506;2023-12-07T02:46:26;1.00;99.90
19781;DHT22;10050;55.492;13.506;2023-12-07T02:48:52;1.00;99.90
19781;DHT22;10050;55.492;13.506;2023-12-07T02:51:17;1.10;99.90
19781;DHT22;10050;55.492;13.506;2023-12-07T02:53:43;1.10;99.90
19781;DHT22;10050;55.492;13.506;2023-12-07T02:56:09;1.10;99.90
19781;DHT22;10050;55.492;13.506;2023-12-07T02:58:34;1.10;99.90
19781;DHT22;10050;55.492;13.506;2023-12-07T03:01:00;1.10;99.90
19781;DHT22;10050;55.492;13.506;2023-12-07T03:03:26;1.10;99.90
19781;DHT22;10050;55.492;13.506;2023-12-07T03:05:51;1.10;99.90
19781;DHT22;10050;55.492;13.506;2023-12-07T03:08:17;1.10;99.90
19781;DHT22;10050;55.492;13.506;2023-12-07T03:10:45;1.10;99.90
19781;DHT22;10050;55.492;13.506;2023-12-07T03:13:11;1.10;99.90
19781;DHT22;10050;55.492;13.506;2023-12-07T03:15:36;1.10;99.90
19781;DHT22;10050;55.492;13.506;2023-12-07T03:18:02;1.10;99.90
19781;DHT22;10050;55.492;13.506;2023-12-07T03:20:28;1.20;99.90
19781;DHT22;10050;55.492;13.506;2023-12-07T03:22:53;1.20;99.90
19781;DHT22;10050;55.492;13.506;2023-12-07T03:25:19;1.20;99.90
19781;DHT22;10050;55.492;13.506;2023-12-07T03:27:44;1.20;99.90
19781;DHT22;10050;55.492;13.506;2023-12-07T03:30:10;1.20;99.90
19781;DHT22;10050;55.492;13.506;2023-12-07T03:32:36;1.20;99.90
19781;DHT22;10050;55.492;13.506;2023-12-07T03:35:02;1.20;99.90
19781;DHT22;10050;55.492;13.506;2023-12-07T03:37:29;1.20;99.90
19781;DHT22;10050;55.492;13.506;2023-12-07T03:39:54;1.20;99.90
19781;DHT22;10050;55.492;13.506;2023-12-07T03:42:20;1.20;99.90
19781;DHT22;10050;55.492;13.506;2023-12-07T03:44:45;1.10;99.90
19781;DHT22;10050;55.492;13.506;2023-12-07T03:47:11;1.10;99.90
19781;DHT22;10050;55.492;13.506;2023-12-07T03:49:37;1.10;99.90
19781;DHT22;10050;55.492;13.506;2023-12-07T03:52:04;1.10;99.90
19781;DHT22;10050;55.492;13.506;2023-12-07T03:54:30;1.10;99.90
19781;DHT22;10050;55.492;13.506;2023-12-07T03:56:55;1.10;99.90
19781;DHT22;10050;55.492;13.506;2023-12-07T03:59:21;1.10;99.90
19781;DHT22;10050;55.492;13.506;2023-12-07T04:01:49;1.10;99.90
19781;DHT22;10050;55.492;13.506;2023-12-07T04:04:15;1.10;99.90
19781;DHT22;10050;55.492;13.506;2023-12-07T04:06:41;1.20;99.90
19781;DHT22;10050;55.492;13.506;2023-12-07T04:09:06;1.10;99.90
19781;DHT22;10050;55.492;13.506;2023-12-07T04:11:33;1.20;99.90
19781;DHT22;10050;55.492;13.506;2023-12-07T04:13:58;1.10;99.90
19781;DHT22;10050;55.492;13.506;2023-12-07T04:16:24;1.20;99.90
19781;DHT22;10050;55.492;13.506;2023-12-07T04:18:51;1.20;99.90
19781;DHT22;10050;55.492;13.506;2023-12-07T04:21:20;1.20;99.90
19781;DHT22;10050;55.492;13.506;2023-12-07T04:23:45;1.20;99.90
19781;DHT22;10050;55.492;13.506;2023-12-07T04:26:11;1.20;99.90
19781;DHT22;10050;55.492;13.506;2023-12-07T04:28:36;1.20;99.90
19781;DHT22;10050;55.492;13.506;2023-12-07T04:31:03;1.20;99.90
19781;DHT22;10050;55.492;13.506;2023-12-07T04:33:28;1.20;99.90
19781;DHT22;10050;55.492;13.506;2023-12-07T04:35:54;1.20;99.90
19781;DHT22;10050;55.492;13.506;2023-12-07T04:38:19;1.20;99.90
19781;DHT22;10050;55.492;13.506;2023-12-07T04:40:45;1.20;99.90
19781;DHT22;10050;55.492;13.506;2023-12-07T04:43:11;1.30;99.90
19781;DHT22;10050;55.492;13.506;2023-12-07T04:45:36;1.30;99.90
19781;DHT22;10050;55.492;13.506;2023-12-07T04:48:02;1.30;99.90
19781;DHT22;10050;55.492;13.506;2023-12-07T04:50:29;1.20;99.90
19781;DHT22;10050;55.492;13.506;2023-12-07T04:52:54;1.30;99.90
19781;DHT22;10050;55.492;13.506;2023-12-07T04:55:20;1.30;99.90
19781;DHT22;10050;55.492;13.506;2023-12-07T04:57:45;1.30;99.90
19781;DHT22;10050;55.492;13.506;2023-12-07T05:00:12;1.30;99.90
19781;DHT22;10050;55.492;13.506;2023-12-07T05:02:38;1.30;99.90
19781;DHT22;10050;55.492;13.506;2023-12-07T05:05:04;1.30;99.90
19781;DHT22;10050;55.492;13.506;2023-12-07T05:07:30;1.40;99.90
19781;DHT22;10050;55.492;13.506;2023-12-07T05:09:56;1.30;99.90
19781;DHT22;10050;55.492;13.506;2023-12-07T05:12:21;1.40;99.90
19781;DHT22;10050;55.492;13.506;2023-12-07T05:14:47;1.40;99.90
19781;DHT22;10050;55.492;13.506;2023-12-07T05:17:12;1.40;99.90
19781;DHT22;10050;55.492;13.506;2023-12-07T05:19:38;1.40;99.90
19781;DHT22;10050;55.492;13.506;2023-12-07T05:22:04;1.40;99.90
19781;DHT22;10050;55.492;13.506;2023-12-07T05:24:30;1.40;99.90
19781;DHT22;10050;55.492;13.506;2023-12-07T05:26:57;1.50;99.90
19781;DHT22;10050;55.492;13.506;2023-12-07T05:29:23;1.50;99.90
19781;DHT22;10050;55.492;13.506;2023-12-07T05:31:49;1.50;99.90
19781;DHT22;10050;55.492;13.506;2023-12-07T05:34:17;1.60;99.90
19781;DHT22;10050;55.492;13.506;2023-12-07T05:36:44;1.50;99.90
19781;DHT22;10050;55.492;13.506;2023-12-07T05:39:11;1.50;99.90
19781;DHT22;10050;55.492;13.506;2023-12-07T05:41:38;1.50;99.90
19781;DHT22;10050;55.492;13.506;2023-12-07T05:44:04;1.50;99.90
19781;DHT22;10050;55.492;13.506;2023-12-07T05:46:30;1.60;99.90
19781;DHT22;10050;55.492;13.506;2023-12-07T05:48:55;1.60;99.90
19781;DHT22;10050;55.492;13.506;2023-12-07T05:51:23;1.60;99.90
19781;DHT22;10050;55.492;13.506;2023-12-07T05:53:49;1.60;99.90
19781;DHT22;10050;55.492;13.506;2023-12-07T05:56:20;1.60;99.90
19781;DHT22;10050;55.492;13.506;2023-12-07T05:58:47;1.60;99.90
19781;DHT22;10050;55.492;13.506;2023-12-07T06:01:16;1.70;99.90
19781;DHT22;10050;55.492;13.506;2023-12-07T06:03:43;1.60;99.90
19781;DHT22;10050;55.492;13.506;2023-12-07T06:06:08;1.60;99.90
19781;DHT22;10050;55.492;13.506;2023-12-07T06:08:37;1.60;99.90
19781;DHT22;10050;55.492;13.506;2023-12-07T06:11:03;1.70;99.90
19781;DHT22;10050;55.492;13.506;2023-12-07T06:13:28;1.70;99.90
19781;DHT22;10050;55.492;13.506;2023-12-07T06:15:54;1.70;99.90
19781;DHT22;10050;55.492;13.506;2023-12-07T06:18:19;1.70;99.90
19781;DHT22;10050;55.492;13.506;2023-12-07T06:20:45;1.70;99.90
19781;DHT22;10050;55.492;13.506;2023-12-07T06:23:11;1.70;99.90
19781;DHT22;10050;55.492;13.506;2023-12-07T06:25:38;1.70;99.90
19781;DHT22;10050;55.492;13.506;2023-12-07T06:28:07;1.70;99.90
19781;DHT22;10050;55.492;13.506;2023-12-07T06:30:33;1.70;99.90
19781;DHT22;10050;55.492;13.506;2023-12-07T06:32:59;1.80;99.90
19781;DHT22;10050;55.492;13.506;2023-12-07T06:35:25;1.80;99.90
19781;DHT22;10050;55.492;13.506;2023-12-07T06:37:51;1.80;99.90
19781;DHT22;10050;55.492;13.506;2023-12-07T06:40:16;1.80;99.90
19781;DHT22;10050;55.492;13.506;2023-12-07T06:42:42;1.80;99.90
19781;DHT22;10050;55.492;13.506;2023-12-07T06:45:08;1.80;99.90
19781;DHT22;10050;55.492;13.506;2023-12-07T06:47:38;1.80;99.90
19781;DHT22;10050;55.492;13.506;2023-12-07T06:50:07;1.80;99.90
19781;DHT22;10050;55.492;13.506;2023-12-07T06:52:35;1.90;99.90
19781;DHT22;10050;55.492;13.506;2023-12-07T06:55:01;1.90;99.90
19781;DHT22;10050;55.492;13.506;2023-12-07T06:57:27;1.90;99.90
19781;DHT22;10050;55.492;13.506;2023-12-07T06:59:53;1.90;99.90
19781;DHT22;10050;55.492;13.506;2023-12-07T07:02:19;1.90;99.90
19781;DHT22;10050;55.492;13.506;2023-12-07T07:04:44;1.90;99.90
19781;DHT22;10050;55.492;13.506;2023-12-07T07:07:10;1.90;99.90
19781;DHT22;10050;55.492;13.506;2023-12-07T07:09:35;1.90;99.90
19781;DHT22;10050;55.492;13.506;2023-12-07T07:12:01;1.90;99.90
19781;DHT22;10050;55.492;13.506;2023-12-07T07:14:27;1.90;99.90
19781;DHT22;10050;55.492;13.506;2023-12-07T07:16:52;1.90;99.90
19781;DHT22;10050;55.492;13.506;2023-12-07T07:19:18;1.90;99.90
19781;DHT22;10050;55.492;13.506;2023-12-07T07:21:44;1.80;99.90
19781;DHT22;10050;55.492;13.506;2023-12-07T07:24:09;1.80;99.90
19781;DHT22;10050;55.492;13.506;2023-12-07T07:26:35;1.80;99.90
19781;DHT22;10050;55.492;13.506;2023-12-07T07:29:00;1.80;99.90
19781;DHT22;10050;55.492;13.506;2023-12-07T07:31:28;1.80;99.90
19781;DHT22;10050;55.492;13.506;2023-12-07T07:33:54;1.70;99.90
19781;DHT22;10050;55.492;13.506;2023-12-07T07:36:19;1.80;99.90
19781;DHT22;10050;55.492;13.506;2023-12-07T07:38:45;1.70;99.90
19781;DHT22;10050;55.492;13.506;2023-12-07T07:41:10;1.80;99.90
19781;DHT22;10050;55.492;13.506;2023-12-07T07:43:37;1.80;99.90
19781;DHT22;10050;55.492;13.506;2023-12-07T07:46:06;1.80;99.90
19781;DHT22;10050;55.492;13.506;2023-12-07T07:48:32;1.80;99.90
19781;DHT22;10050;55.492;13.506;2023-12-07T07:50:57;1.80;99.90
19781;DHT22;10050;55.492;13.506;2023-12-07T07:53:24;1.80;99.90
19781;DHT22;10050;55.492;13.506;2023-12-07T07:55:49;1.80;99.90
19781;DHT22;10050;55.492;13.506;2023-12-07T07:58:15;1.80;99.90
19781;DHT22;10050;55.492;13.506;2023-12-07T08:00:40;1.80;99.90
19781;DHT22;10050;55.492;13.506;2023-12-07T08:03:06;1.80;99.90
19781;DHT22;10050;55.492;13.506;2023-12-07T08:05:32;1.80;99.90
19781;DHT22;10050;55.492;13.506;2023-12-07T08:07:58;1.90;99.90
19781;DHT22;10050;55.492;13.506;2023-12-07T08:10:24;1.90;99.90
19781;DHT22;10050;55.492;13.506;2023-12-07T08:12:49;2.00;99.90
19781;DHT22;10050;55.492;13.506;2023-12-07T08:15:15;2.00;99.90
19781;DHT22;10050;55.492;13.506;2023-12-07T08:17:42;2.10;99.90
19781;DHT22;10050;55.492;13.506;2023-12-07T08:20:08;2.10;99.90
19781;DHT22;10050;55.492;13.506;2023-12-07T08:22:36;2.10;99.90
19781;DHT22;10050;55.492;13.506;2023-12-07T08:25:03;2.20;99.90
19781;DHT22;10050;55.492;13.506;2023-12-07T08:27:31;2.20;99.90
19781;DHT22;10050;55.492;13.506;2023-12-07T08:29:58;2.10;99.90
19781;DHT22;10050;55.492;13.506;2023-12-07T08:32:23;2.20;99.90
19781;DHT22;10050;55.492;13.506;2023-12-07T08:34:51;2.20;99.90
19781;DHT22;10050;55.492;13.506;2023-12-07T08:37:17;2.20;99.90
19781;DHT22;10050;55.492;13.506;2023-12-07T08:39:42;2.20;99.90
19781;DHT22;10050;55.492;13.506;2023-12-07T08:42:08;2.30;99.90
19781;DHT22;10050;55.492;13.506;2023-12-07T08:44:34;2.40;99.90
19781;DHT22;10050;55.492;13.506;2023-12-07T08:46:59;2.40;99.90
19781;DHT22;10050;55.492;13.506;2023-12-07T08:49:25;2.40;99.90
19781;DHT22;10050;55.492;13.506;2023-12-07T08:51:51;2.40;99.90
19781;DHT22;10050;55.492;13.506;2023-12-07T08:54:18;2.40;99.90
19781;DHT22;10050;55.492;13.506;2023-12-07T08:56:44;2.40;99.90
19781;DHT22;10050;55.492;13.506;2023-12-07T08:59:10;2.40;99.90
19781;DHT22;10050;55.492;13.506;2023-12-07T09:01:36;2.40;99.90
19781;DHT22;10050;55.492;13.506;2023-12-07T09:04:02;2.40;99.90
19781;DHT22;10050;55.492;13.506;2023-12-07T09:06:28;2.40;99.90
19781;DHT22;10050;55.492;13.506;2023-12-07T09:08:54;2.40;99.90
19781;DHT22;10050;55.492;13.506;2023-12-07T09:11:23;2.30;99.90
19781;DHT22;10050;55.492;13.506;2023-12-07T09:13:49;2.30;99.90
19781;DHT22;10050;55.492;13.506;2023-12-07T09:16:15;2.30;99.90
19781;DHT22;10050;55.492;13.506;2023-12-07T09:18:41;2.40;99.90
19781;DHT22;10050;55.492;13.506;2023-12-07T09:21:08;2.30;99.90
19781;DHT22;10050;55.492;13.506;2023-12-07T09:23:34;2.30;99.90
19781;DHT22;10050;55.492;13.506;2023-12-07T09:26:00;2.20;99.90
19781;DHT22;10050;55.492;13.506;2023-12-07T09:28:26;2.30;99.90
19781;DHT22;10050;55.492;13.506;2023-12-07T09:30:52;2.30;99.90
19781;DHT22;10050;55.492;13.506;2023-12-07T09:33:17;2.40;99.90
19781;DHT22;10050;55.492;13.506;2023-12-07T09:35:43;2.40;99.90
19781;DHT22;10050;55.492;13.506;2023-12-07T09:38:09;2.40;99.90
19781;DHT22;10050;55.492;13.506;2023-12-07T09:40:35;2.40;99.90
19781;DHT22;10050;55.492;13.506;2023-12-07T09:43:00;2.40;99.90
19781;DHT22;10050;55.492;13.506;2023-12-07T09:45:26;2.50;99.90
19781;DHT22;10050;55.492;13.506;2023-12-07T09:47:53;2.50;99.90
19781;DHT22;10050;55.492;13.506;2023-12-07T09:50:28;2.60;99.90
19781;DHT22;10050;55.492;13.506;2023-12-07T09:52:56;2.60;99.90
19781;DHT22;10050;55.492;13.506;2023-12-07T09:55:22;2.50;99.90
19781;DHT22;10050;55.492;13.506;2023-12-07T09:57:49;2.50;99.90
19781;DHT22;10050;55.492;13.506;2023-12-07T10:00:15;2.60;99.90
19781;DHT22;10050;55.492;13.506;2023-12-07T10:02:42;2.60;99.90
19781;DHT22;10050;55.492;13.506;2023-12-07T10:05:09;2.60;99.90
19781;DHT22;10050;55.492;13.506;2023-12-07T10:07:46;2.50;99.90
19781;DHT22;10050;55.492;13.506;2023-12-07T10:10:17;2.40;99.90
19781;DHT22;10050;55.492;13.506;2023-12-07T10:12:54;2.40;99.90
19781;DHT22;10050;55.492;13.506;2023-12-07T10:15:22;2.40;99.90
19781;DHT22;10050;55.492;13.506;2023-12-07T10:17:58;2.40;99.90
19781;DHT22;10050;55.492;13.506;2023-12-07T10:20:26;2.50;99.90
19781;DHT22;10050;55.492;13.506;2023-12-07T10:23:06;2.50;99.90
19781;DHT22;10050;55.492;13.506;2023-12-07T10:25:36;2.60;99.90
19781;DHT22;10050;55.492;13.506;2023-12-07T10:28:02;2.60;99.90
19781;DHT22;10050;55.492;13.506;2023-12-07T10:30:32;2.60;99.90
19781;DHT22;10050;55.492;13.506;2023-12-07T10:32:57;2.60;99.90
19781;DHT22;10050;55.492;13.506;2023-12-07T10:35:23;2.60;99.90
19781;DHT22;10050;55.492;13.506;2023-12-07T10:37:49;2.60;99.90
19781;DHT22;10050;55.492;13.506;2023-12-07T10:40:15;2.60;99.90
19781;DHT22;10050;55.492;13.506;2023-12-07T10:42:41;2.60;99.90
19781;DHT22;10050;55.492;13.506;2023-12-07T10:45:08;2.60;99.90
19781;DHT22;10050;55.492;13.506;2023-12-07T10:47:37;2.60;99.90
19781;DHT22;10050;55.492;13.506;2023-12-07T10:50:06;2.60;99.90
19781;DHT22;10050;55.492;13.506;2023-12-07T10:52:45;2.60;99.90
19781;DHT22;10050;55.492;13.506;2023-12-07T10:55:17;2.60;99.90
19781;DHT22;10050;55.492;13.506;2023-12-07T10:57:46;2.60;99.90
19781;DHT22;10050;55.492;13.506;2023-12-07T11:00:12;2.60;99.90
19781;DHT22;10050;55.492;13.506;2023-12-07T11:02:39;2.70;99.90
19781;DHT22;10050;55.492;13.506;2023-12-07T11:05:07;2.70;99.90
19781;DHT22;10050;55.492;13.506;2023-12-07T11:07:41;2.70;99.90
19781;DHT22;10050;55.492;13.506;2023-12-07T11:10:15;2.70;99.90
19781;DHT22;10050;55.492;13.506;2023-12-07T11:12:59;2.70;99.90
19781;DHT22;10050;55.492;13.506;2023-12-07T11:15:26;2.80;99.90
19781;DHT22;10050;55.492;13.506;2023-12-07T11:17:56;2.80;99.90
19781;DHT22;10050;55.492;13.506;2023-12-07T11:20:45;2.80;99.90
19781;DHT22;10050;55.492;13.506;2023-12-07T11:23:17;2.80;99.90
19781;DHT22;10050;55.492;13.506;2023-12-07T11:25:45;2.80;99.90
19781;DHT22;10050;55.492;13.506;2023-12-07T11:28:12;2.80;99.90
19781;DHT22;10050;55.492;13.506;2023-12-07T11:30:38;2.80;99.90
19781;DHT22;10050;55.492;13.506;2023-12-07T11:33:09;2.80;99.90
19781;DHT22;10050;55.492;13.506;2023-12-07T11:36:12;2.80;99.90
19781;DHT22;10050;55.492;13.506;2023-12-07T11:41:23;2.80;99.90
19781;DHT22;10050;55.492;13.506;2023-12-07T11:43:50;2.70;99.90
19781;DHT22;10050;55.492;13.506;2023-12-07T11:46:19;2.80;99.90
19781;DHT22;10050;55.492;13.506;2023-12-07T11:48:48;2.80;99.90
19781;DHT22;10050;55.492;13.506;2023-12-07T11:51:16;2.80;99.90
19781;DHT22;10050;55.492;13.506;2023-12-07T11:53:42;2.80;99.90
19781;DHT22;10050;55.492;13.506;2023-12-07T11:56:09;2.80;99.90
19781;DHT22;10050;55.492;13.506;2023-12-07T11:58:39;2.80;99.90
19781;DHT22;10050;55.492;13.506;2023-12-07T12:01:05;2.80;99.90
19781;DHT22;10050;55.492;13.506;2023-12-07T12:03:31;2.80;99.90
19781;DHT22;10050;55.492;13.506;2023-12-07T12:06:04;2.90;99.90
19781;DHT22;10050;55.492;13.506;2023-12-07T12:08:31;2.80;99.90
19781;DHT22;10050;55.492;13.506;2023-12-07T12:10:57;2.80;99.90
19781;DHT22;10050;55.492;13.506;2023-12-07T12:13:34;2.80;99.90
19781;DHT22;10050;55.492;13.506;2023-12-07T12:16:00;2.80;99.90
19781;DHT22;10050;55.492;13.506;2023-12-07T12:18:26;2.90;99.90
19781;DHT22;10050;55.492;13.506;2023-12-07T12:20:53;2.90;99.90
19781;DHT22;10050;55.492;13.506;2023-12-07T12:23:19;2.90;99.90
19781;DHT22;10050;55.492;13.506;2023-12-07T12:25:45;2.90;99.90
19781;DHT22;10050;55.492;13.506;2023-12-07T12:28:17;2.90;99.90
19781;DHT22;10050;55.492;13.506;2023-12-07T12:30:45;2.90;99.90
19781;DHT22;10050;55.492;13.506;2023-12-07T12:33:12;2.90;99.90
19781;DHT22;10050;55.492;13.506;2023-12-07T12:35:39;2.90;99.90
19781;DHT22;10050;55.492;13.506;2023-12-07T12:38:12;2.90;99.90
19781;DHT22;10050;55.492;13.506;2023-12-07T12:40:38;2.90;99.90
19781;DHT22;10050;55.492;13.506;2023-12-07T12:43:05;2.90;99.90
19781;DHT22;10050;55.492;13.506;2023-12-07T12:45:31;2.90;99.90
19781;DHT22;10050;55.492;13.506;2023-12-07T12:47:58;2.90;99.90
19781;DHT22;10050;55.492;13.506;2023-12-07T12:50:42;2.90;99.90
19781;DHT22;10050;55.492;13.506;2023-12-07T12:53:09;2.90;99.90
19781;DHT22;10050;55.492;13.506;2023-12-07T12:55:40;2.90;99.90
19781;DHT22;10050;55.492;13.506;2023-12-07T12:58:07;2.90;99.90
19781;DHT22;10050;55.492;13.506;2023-12-07T13:00:34;2.90;99.90
19781;DHT22;10050;55.492;13.506;2023-12-07T13:03:04;2.90;99.90
19781;DHT22;10050;55.492;13.506;2023-12-07T13:05:30;2.80;99.90
19781;DHT22;10050;55.492;13.506;2023-12-07T13:07:58;2.80;99.90
19781;DHT22;10050;55.492;13.506;2023-12-07T13:10:28;2.80;99.90
19781;DHT22;10050;55.492;13.506;2023-12-07T13:12:56;2.80;99.90
19781;DHT22;10050;55.492;13.506;2023-12-07T13:15:22;2.90;99.90
19781;DHT22;10050;55.492;13.506;2023-12-07T13:17:47;2.80;99.90
19781;DHT22;10050;55.492;13.506;2023-12-07T13:20:13;2.80;99.90
19781;DHT22;10050;55.492;13.506;2023-12-07T13:22:42;2.80;99.90
19781;DHT22;10050;55.492;13.506;2023-12-07T13:25:12;2.80;99.90
19781;DHT22;10050;55.492;13.506;2023-12-07T13:27:40;2.80;99.90
19781;DHT22;10050;55.492;13.506;2023-12-07T13:30:06;2.80;99.90
19781;DHT22;10050;55.492;13.506;2023-12-07T13:32:36;2.80;99.90
19781;DHT22;10050;55.492;13.506;2023-12-07T13:35:05;2.80;99.90
19781;DHT22;10050;55.492;13.506;2023-12-07T13:37:33;2.80;99.90
19781;DHT22;10050;55.492;13.506;2023-12-07T13:39:59;2.90;99.90
19781;DHT22;10050;55.492;13.506;2023-12-07T13:42:30;2.80;99.90
19781;DHT22;10050;55.492;13.506;2023-12-07T13:44:56;2.80;99.90
19781;DHT22;10050;55.492;13.506;2023-12-07T13:47:24;2.80;99.90
19781;DHT22;10050;55.492;13.506;2023-12-07T13:49:57;2.80;99.90
19781;DHT22;10050;55.492;13.506;2023-12-07T13:52:23;2.80;99.90
19781;DHT22;10050;55.492;13.506;2023-12-07T13:54:50;2.80;99.90
19781;DHT22;10050;55.492;13.506;2023-12-07T13:57:15;2.80;99.90
19781;DHT22;10050;55.492;13.506;2023-12-07T13:59:41;2.80;99.90
19781;DHT22;10050;55.492;13.506;2023-12-07T14:02:07;2.80;99.90
19781;DHT22;10050;55.492;13.506;2023-12-07T14:04:33;2.80;99.90
19781;DHT22;10050;55.492;13.506;2023-12-07T14:07:09;2.80;99.90
19781;DHT22;10050;55.492;13.506;2023-12-07T14:09:41;2.80;99.90
19781;DHT22;10050;55.492;13.506;2023-12-07T14:12:07;2.80;99.90
19781;DHT22;10050;55.492;13.506;2023-12-07T14:14:37;2.80;99.90
19781;DHT22;10050;55.492;13.506;2023-12-07T14:17:03;2.80;99.90
19781;DHT22;10050;55.492;13.506;2023-12-07T14:19:29;2.80;99.90
19781;DHT22;10050;55.492;13.506;2023-12-07T14:21:54;2.70;99.90
19781;DHT22;10050;55.492;13.506;2023-12-07T14:24:22;2.70;99.90
19781;DHT22;10050;55.492;13.506;2023-12-07T14:26:48;2.70;99.90
19781;DHT22;10050;55.492;13.506;2023-12-07T14:29:14;2.70;99.90
19781;DHT22;10050;55.492;13.506;2023-12-07T14:31:43;2.80;99.90
19781;DHT22;10050;55.492;13.506;2023-12-07T14:34:09;2.70;99.90
19781;DHT22;10050;55.492;13.506;2023-12-07T14:36:35;2.70;99.90
19781;DHT22;10050;55.492;13.506;2023-12-07T14:39:00;2.70;99.90
19781;DHT22;10050;55.492;13.506;2023-12-07T14:41:26;2.70;99.90
19781;DHT22;10050;55.492;13.506;2023-12-07T14:43:52;2.70;99.90
19781;DHT22;10050;55.492;13.506;2023-12-07T14:46:17;2.70;99.90
19781;DHT22;10050;55.492;13.506;2023-12-07T14:48:43;2.70;99.90
19781;DHT22;10050;55.492;13.506;2023-12-07T14:51:09;2.70;99.90
19781;DHT22;10050;55.492;13.506;2023-12-07T14:53:34;2.70;99.90
19781;DHT22;10050;55.492;13.506;2023-12-07T14:56:02;2.70;99.90
19781;DHT22;10050;55.492;13.506;2023-12-07T14:58:28;2.70;99.90
19781;DHT22;10050;55.492;13.506;2023-12-07T15:00:57;2.70;99.90
19781;DHT22;10050;55.492;13.506;2023-12-07T15:03:23;2.60;99.90
19781;DHT22;10050;55.492;13.506;2023-12-07T15:05:48;2.60;99.90
19781;DHT22;10050;55.492;13.506;2023-12-07T15:08:14;2.60;99.90
19781;DHT22;10050;55.492;13.506;2023-12-07T15:10:39;2.60;99.90
19781;DHT22;10050;55.492;13.506;2023-12-07T15:13:05;2.60;99.90
19781;DHT22;10050;55.492;13.506;2023-12-07T15:15:32;2.60;99.90
19781;DHT22;10050;55.492;13.506;2023-12-07T15:17:58;2.60;99.90
19781;DHT22;10050;55.492;13.506;2023-12-07T15:20:24;2.60;99.90
19781;DHT22;10050;55.492;13.506;2023-12-07T15:22:50;2.60;99.90
19781;DHT22;10050;55.492;13.506;2023-12-07T15:25:16;2.60;99.90
19781;DHT22;10050;55.492;13.506;2023-12-07T15:27:42;2.60;99.90
19781;DHT22;10050;55.492;13.506;2023-12-07T15:30:08;2.60;99.90
19781;DHT22;10050;55.492;13.506;2023-12-07T15:32:35;2.60;99.90